sensor_id;sensor_type;location;lat;lon;timestamp;P1;durP1;ratioP1;P2;durP2;ratioP2
6937;SDS011;40040;42.706;23.372;2023-11-19T00:00:28;2.20;;;2.10;;
6937;SDS011;40040;42.706;23.372;2023-11-19T00:02:55;2.50;;;2.40;;
6937;SDS011;40040;42.706;23.372;2023-11-19T00:05:22;3.07;;;2.87;;
6937;SDS011;40040;42.706;23.372;2023-11-19T00:07:49;2.60;;;2.40;;
6937;SDS011;40040;42.706;23.372;2023-11-19T00:10:16;3.73;;;3.40;;
6937;SDS011;40040;42.706;23.372;2023-11-19T00:12:45;2.40;;;2.30;;
6937;SDS011;40040;42.706;23.372;2023-11-19T00:15:13;2.40;;;2.30;;
6937;SDS011;40040;42.706;23.372;2023-11-19T00:17:42;2.60;;;2.33;;
6937;SDS011;40040;42.706;23.372;2023-11-19T00:20:11;3.67;;;2.40;;
6937;SDS011;40040;42.706;23.372;2023-11-19T00:22:38;3.23;;;2.70;;
6937;SDS011;40040;42.706;23.372;2023-11-19T00:25:06;2.60;;;2.47;;
6937;SDS011;40040;42.706;23.372;2023-11-19T00:27:33;2.60;;;2.40;;
6937;SDS011;40040;42.706;23.372;2023-11-19T00:30:00;2.47;;;2.30;;
6937;SDS011;40040;42.706;23.372;2023-11-19T00:32:30;2.30;;;2.20;;
6937;SDS011;40040;42.706;23.372;2023-11-19T00:34:58;3.00;;;2.80;;
6937;SDS011;40040;42.706;23.372;2023-11-19T00:37:25;2.57;;;2.30;;
6937;SDS011;40040;42.706;23.372;2023-11-19T00:39:52;2.30;;;2.20;;
6937;SDS011;40040;42.706;23.372;2023-11-19T00:42:21;2.67;;;2.50;;
6937;SDS011;40040;42.706;23.372;2023-11-19T00:44:48;2.67;;;2.47;;
6937;SDS011;40040;42.706;23.372;2023-11-19T00:47:15;2.77;;;2.57;;
6937;SDS011;40040;42.706;23.372;2023-11-19T00:49:42;2.30;;;2.20;;
6937;SDS011;40040;42.706;23.372;2023-11-19T00:52:10;3.07;;;2.83;;
6937;SDS011;40040;42.706;23.372;2023-11-19T00:54:37;2.73;;;2.53;;
6937;SDS011;40040;42.706;23.372;2023-11-19T00:57:04;2.57;;;2.37;;
6937;SDS011;40040;42.706;23.372;2023-11-19T00:59:31;3.00;;;2.77;;
6937;SDS011;40040;42.706;23.372;2023-11-19T01:01:57;2.90;;;2.70;;
6937;SDS011;40040;42.706;23.372;2023-11-19T01:04:28;4.50;;;2.60;;
6937;SDS011;40040;42.706;23.372;2023-11-19T01:06:55;2.67;;;2.47;;
6937;SDS011;40040;42.706;23.372;2023-11-19T01:09:23;2.30;;;2.20;;
6937;SDS011;40040;42.706;23.372;2023-11-19T01:11:51;2.50;;;2.40;;
6937;SDS011;40040;42.706;23.372;2023-11-19T01:14:20;2.43;;;2.27;;
6937;SDS011;40040;42.706;23.372;2023-11-19T01:16:47;2.47;;;2.37;;
6937;SDS011;40040;42.706;23.372;2023-11-19T01:19:14;2.73;;;2.53;;
6937;SDS011;40040;42.706;23.372;2023-11-19T01:21:40;2.70;;;2.50;;
6937;SDS011;40040;42.706;23.372;2023-11-19T01:24:08;3.03;;;2.43;;
6937;SDS011;40040;42.706;23.372;2023-11-19T01:26:39;2.63;;;2.43;;
6937;SDS011;40040;42.706;23.372;2023-11-19T01:29:10;2.60;;;2.40;;
6937;SDS011;40040;42.706;23.372;2023-11-19T01:31:38;2.80;;;2.53;;
6937;SDS011;40040;42.706;23.372;2023-11-19T01:34:05;2.53;;;2.43;;
6937;SDS011;40040;42.706;23.372;2023-11-19T01:36:32;2.60;;;2.40;;
6937;SDS011;40040;42.706;23.372;2023-11-19T01:38:59;2.80;;;2.60;;
6937;SDS011;40040;42.706;23.372;2023-11-19T01:41:26;2.30;;;2.20;;
6937;SDS011;40040;42.706;23.372;2023-11-19T01:43:54;2.50;;;2.40;;
6937;SDS011;40040;42.706;23.372;2023-11-19T01:46:21;2.43;;;2.33;;
6937;SDS011;40040;42.706;23.372;2023-11-19T01:48:48;2.90;;;2.70;;
6937;SDS011;40040;42.706;23.372;2023-11-19T01:51:15;2.27;;;2.17;;
6937;SDS011;40040;42.706;23.372;2023-11-19T01:53:43;2.37;;;2.27;;
6937;SDS011;40040;42.706;23.372;2023-11-19T01:56:12;2.70;;;2.50;;
6937;SDS011;40040;42.706;23.372;2023-11-19T01:58:41;2.27;;;2.17;;
6937;SDS011;40040;42.706;23.372;2023-11-19T02:01:10;2.23;;;2.13;;
6937;SDS011;40040;42.706;23.372;2023-11-19T02:03:38;2.80;;;2.60;;
6937;SDS011;40040;42.706;23.372;2023-11-19T02:06:06;3.00;;;2.63;;
6937;SDS011;40040;42.706;23.372;2023-11-19T02:08:35;2.37;;;2.27;;
6937;SDS011;40040;42.706;23.372;2023-11-19T02:11:02;2.43;;;2.20;;
6937;SDS011;40040;42.706;23.372;2023-11-19T02:13:29;2.37;;;2.20;;
6937;SDS011;40040;42.706;23.372;2023-11-19T02:15:56;2.43;;;2.23;;
6937;SDS011;40040;42.706;23.372;2023-11-19T02:18:26;1.87;;;1.80;;
6937;SDS011;40040;42.706;23.372;2023-11-19T02:20:54;2.30;;;2.20;;
6937;SDS011;40040;42.706;23.372;2023-11-19T02:23:21;2.30;;;2.20;;
6937;SDS011;40040;42.706;23.372;2023-11-19T02:25:52;2.00;;;1.90;;
6937;SDS011;40040;42.706;23.372;2023-11-19T02:28:28;2.10;;;2.00;;
6937;SDS011;40040;42.706;23.372;2023-11-19T02:30:55;2.03;;;1.93;;
6937;SDS011;40040;42.706;23.372;2023-11-19T02:33:22;1.70;;;1.60;;
6937;SDS011;40040;42.706;23.372;2023-11-19T02:35:50;2.93;;;2.00;;
6937;SDS011;40040;42.706;23.372;2023-11-19T02:38:17;2.07;;;1.97;;
6937;SDS011;40040;42.706;23.372;2023-11-19T02:40:44;2.20;;;2.10;;
6937;SDS011;40040;42.706;23.372;2023-11-19T02:43:11;2.27;;;2.10;;
6937;SDS011;40040;42.706;23.372;2023-11-19T02:45:39;2.27;;;2.17;;
6937;SDS011;40040;42.706;23.372;2023-11-19T02:48:07;2.40;;;2.20;;
6937;SDS011;40040;42.706;23.372;2023-11-19T02:50:35;2.53;;;2.33;;
6937;SDS011;40040;42.706;23.372;2023-11-19T02:53:02;1.97;;;1.83;;
6937;SDS011;40040;42.706;23.372;2023-11-19T02:55:29;1.97;;;1.93;;
6937;SDS011;40040;42.706;23.372;2023-11-19T02:58:01;1.93;;;1.90;;
6937;SDS011;40040;42.706;23.372;2023-11-19T03:00:33;2.50;;;2.40;;
6937;SDS011;40040;42.706;23.372;2023-11-19T03:03:03;2.23;;;2.13;;
6937;SDS011;40040;42.706;23.372;2023-11-19T03:05:43;2.37;;;2.17;;
6937;SDS011;40040;42.706;23.372;2023-11-19T03:08:11;2.43;;;2.23;;
6937;SDS011;40040;42.706;23.372;2023-11-19T03:10:39;2.07;;;1.90;;
6937;SDS011;40040;42.706;23.372;2023-11-19T03:13:05;2.80;;;2.40;;
6937;SDS011;40040;42.706;23.372;2023-11-19T03:15:38;2.13;;;2.03;;
6937;SDS011;40040;42.706;23.372;2023-11-19T03:18:06;2.23;;;2.03;;
6937;SDS011;40040;42.706;23.372;2023-11-19T03:20:33;2.50;;;2.40;;
6937;SDS011;40040;42.706;23.372;2023-11-19T03:23:00;2.87;;;2.43;;
6937;SDS011;40040;42.706;23.372;2023-11-19T03:25:27;2.53;;;2.37;;
6937;SDS011;40040;42.706;23.372;2023-11-19T03:27:59;2.50;;;2.30;;
6937;SDS011;40040;42.706;23.372;2023-11-19T03:30:26;2.83;;;2.50;;
6937;SDS011;40040;42.706;23.372;2023-11-19T03:32:54;2.37;;;2.27;;
6937;SDS011;40040;42.706;23.372;2023-11-19T03:35:23;1.30;;;1.30;;
6937;SDS011;40040;42.706;23.372;2023-11-19T03:37:50;2.97;;;2.30;;
6937;SDS011;40040;42.706;23.372;2023-11-19T03:40:17;2.00;;;1.90;;
6937;SDS011;40040;42.706;23.372;2023-11-19T03:42:45;1.23;;;1.23;;
6937;SDS011;40040;42.706;23.372;2023-11-19T03:45:12;2.90;;;2.20;;
6937;SDS011;40040;42.706;23.372;2023-11-19T03:47:39;2.10;;;2.00;;
6937;SDS011;40040;42.706;23.372;2023-11-19T03:50:07;1.80;;;1.70;;
6937;SDS011;40040;42.706;23.372;2023-11-19T03:52:36;2.73;;;2.53;;
6937;SDS011;40040;42.706;23.372;2023-11-19T03:55:03;2.53;;;2.33;;
6937;SDS011;40040;42.706;23.372;2023-11-19T03:57:31;2.23;;;2.13;;
6937;SDS011;40040;42.706;23.372;2023-11-19T03:59:58;2.17;;;2.07;;
6937;SDS011;40040;42.706;23.372;2023-11-19T04:02:25;2.53;;;2.33;;
6937;SDS011;40040;42.706;23.372;2023-11-19T04:04:54;2.93;;;2.33;;
6937;SDS011;40040;42.706;23.372;2023-11-19T04:07:21;1.80;;;1.70;;
6937;SDS011;40040;42.706;23.372;2023-11-19T04:09:49;2.17;;;2.07;;
6937;SDS011;40040;42.706;23.372;2023-11-19T04:12:16;1.50;;;1.50;;
6937;SDS011;40040;42.706;23.372;2023-11-19T04:14:43;2.43;;;2.07;;
6937;SDS011;40040;42.706;23.372;2023-11-19T04:17:10;2.23;;;2.03;;
6937;SDS011;40040;42.706;23.372;2023-11-19T04:19:37;2.33;;;2.13;;
6937;SDS011;40040;42.706;23.372;2023-11-19T04:22:06;2.27;;;2.03;;
6937;SDS011;40040;42.706;23.372;2023-11-19T04:24:33;2.13;;;1.93;;
6937;SDS011;40040;42.706;23.372;2023-11-19T04:27:02;1.80;;;1.70;;
6937;SDS011;40040;42.706;23.372;2023-11-19T04:29:30;2.47;;;2.37;;
6937;SDS011;40040;42.706;23.372;2023-11-19T04:31:57;1.80;;;1.70;;
6937;SDS011;40040;42.706;23.372;2023-11-19T04:34:26;2.83;;;2.63;;
6937;SDS011;40040;42.706;23.372;2023-11-19T04:36:52;2.27;;;2.07;;
6937;SDS011;40040;42.706;23.372;2023-11-19T04:39:19;2.47;;;2.20;;
6937;SDS011;40040;42.706;23.372;2023-11-19T04:41:48;2.50;;;2.30;;
6937;SDS011;40040;42.706;23.372;2023-11-19T04:44:17;2.40;;;2.20;;
6937;SDS011;40040;42.706;23.372;2023-11-19T04:46:44;2.30;;;2.20;;
6937;SDS011;40040;42.706;23.372;2023-11-19T04:49:11;2.77;;;2.57;;
6937;SDS011;40040;42.706;23.372;2023-11-19T04:51:38;3.23;;;2.53;;
6937;SDS011;40040;42.706;23.372;2023-11-19T04:54:07;2.63;;;2.43;;
6937;SDS011;40040;42.706;23.372;2023-11-19T04:56:34;6.97;;;3.43;;
6937;SDS011;40040;42.706;23.372;2023-11-19T04:59:02;6.40;;;4.33;;
6937;SDS011;40040;42.706;23.372;2023-11-19T05:01:32;23.13;;;9.87;;
6937;SDS011;40040;42.706;23.372;2023-11-19T05:03:59;16.13;;;6.80;;
6937;SDS011;40040;42.706;23.372;2023-11-19T05:06:26;4.20;;;2.93;;
6937;SDS011;40040;42.706;23.372;2023-11-19T05:08:54;9.63;;;4.63;;
6937;SDS011;40040;42.706;23.372;2023-11-19T05:11:21;7.60;;;4.83;;
6937;SDS011;40040;42.706;23.372;2023-11-19T05:13:48;2.40;;;2.20;;
6937;SDS011;40040;42.706;23.372;2023-11-19T05:16:16;2.80;;;2.60;;
6937;SDS011;40040;42.706;23.372;2023-11-19T05:18:44;5.93;;;3.20;;
6937;SDS011;40040;42.706;23.372;2023-11-19T05:21:11;2.93;;;2.70;;
6937;SDS011;40040;42.706;23.372;2023-11-19T05:23:38;2.57;;;2.37;;
6937;SDS011;40040;42.706;23.372;2023-11-19T05:26:07;2.93;;;2.73;;
6937;SDS011;40040;42.706;23.372;2023-11-19T05:28:33;2.67;;;2.47;;
6937;SDS011;40040;42.706;23.372;2023-11-19T05:31:00;2.97;;;2.53;;
6937;SDS011;40040;42.706;23.372;2023-11-19T05:33:27;4.50;;;2.43;;
6937;SDS011;40040;42.706;23.372;2023-11-19T05:35:55;2.33;;;2.17;;
6937;SDS011;40040;42.706;23.372;2023-11-19T05:38:22;2.40;;;2.20;;
6937;SDS011;40040;42.706;23.372;2023-11-19T05:40:49;3.30;;;2.67;;
6937;SDS011;40040;42.706;23.372;2023-11-19T05:43:16;2.70;;;2.50;;
6937;SDS011;40040;42.706;23.372;2023-11-19T05:45:43;3.67;;;3.27;;
6937;SDS011;40040;42.706;23.372;2023-11-19T05:48:09;4.50;;;2.97;;
6937;SDS011;40040;42.706;23.372;2023-11-19T05:50:36;2.67;;;2.47;;
6937;SDS011;40040;42.706;23.372;2023-11-19T05:53:05;2.80;;;2.60;;
6937;SDS011;40040;42.706;23.372;2023-11-19T05:55:35;3.67;;;2.73;;
6937;SDS011;40040;42.706;23.372;2023-11-19T05:58:03;3.27;;;2.97;;
6937;SDS011;40040;42.706;23.372;2023-11-19T06:00:32;2.87;;;2.67;;
6937;SDS011;40040;42.706;23.372;2023-11-19T06:03:00;2.90;;;2.70;;
6937;SDS011;40040;42.706;23.372;2023-11-19T06:05:27;3.57;;;2.77;;
6937;SDS011;40040;42.706;23.372;2023-11-19T06:07:54;2.83;;;2.57;;
6937;SDS011;40040;42.706;23.372;2023-11-19T06:10:24;3.27;;;2.73;;
6937;SDS011;40040;42.706;23.372;2023-11-19T06:12:55;2.47;;;2.37;;
6937;SDS011;40040;42.706;23.372;2023-11-19T06:15:24;3.70;;;3.10;;
6937;SDS011;40040;42.706;23.372;2023-11-19T06:17:51;4.43;;;2.60;;
6937;SDS011;40040;42.706;23.372;2023-11-19T06:20:18;4.97;;;3.17;;
6937;SDS011;40040;42.706;23.372;2023-11-19T06:22:46;3.87;;;2.90;;
6937;SDS011;40040;42.706;23.372;2023-11-19T06:25:12;4.23;;;2.67;;
6937;SDS011;40040;42.706;23.372;2023-11-19T06:27:42;3.50;;;3.20;;
6937;SDS011;40040;42.706;23.372;2023-11-19T06:30:09;2.50;;;2.30;;
6937;SDS011;40040;42.706;23.372;2023-11-19T06:32:37;2.70;;;2.50;;
6937;SDS011;40040;42.706;23.372;2023-11-19T06:35:04;2.80;;;2.60;;
6937;SDS011;40040;42.706;23.372;2023-11-19T06:37:32;3.13;;;2.47;;
6937;SDS011;40040;42.706;23.372;2023-11-19T06:39:59;5.50;;;3.43;;
6937;SDS011;40040;42.706;23.372;2023-11-19T06:42:25;2.90;;;2.63;;
6937;SDS011;40040;42.706;23.372;2023-11-19T06:44:54;4.83;;;3.70;;
6937;SDS011;40040;42.706;23.372;2023-11-19T06:47:22;4.87;;;3.80;;
6937;SDS011;40040;42.706;23.372;2023-11-19T06:49:49;3.70;;;3.30;;
6937;SDS011;40040;42.706;23.372;2023-11-19T06:52:16;5.63;;;4.03;;
6937;SDS011;40040;42.706;23.372;2023-11-19T06:54:42;3.63;;;3.17;;
6937;SDS011;40040;42.706;23.372;2023-11-19T06:57:10;4.77;;;3.60;;
6937;SDS011;40040;42.706;23.372;2023-11-19T06:59:37;6.50;;;4.33;;
6937;SDS011;40040;42.706;23.372;2023-11-19T07:02:05;3.50;;;2.80;;
6937;SDS011;40040;42.706;23.372;2023-11-19T07:04:32;2.73;;;2.60;;
6937;SDS011;40040;42.706;23.372;2023-11-19T07:06:59;4.70;;;2.73;;
6937;SDS011;40040;42.706;23.372;2023-11-19T07:09:26;3.77;;;2.80;;
6937;SDS011;40040;42.706;23.372;2023-11-19T07:11:53;3.70;;;3.00;;
6937;SDS011;40040;42.706;23.372;2023-11-19T07:14:21;2.67;;;2.47;;
6937;SDS011;40040;42.706;23.372;2023-11-19T07:16:48;3.13;;;2.87;;
6937;SDS011;40040;42.706;23.372;2023-11-19T07:19:17;2.73;;;2.43;;
6937;SDS011;40040;42.706;23.372;2023-11-19T07:21:44;2.90;;;2.70;;
6937;SDS011;40040;42.706;23.372;2023-11-19T07:24:10;2.70;;;2.50;;
6937;SDS011;40040;42.706;23.372;2023-11-19T07:26:40;2.33;;;2.23;;
6937;SDS011;40040;42.706;23.372;2023-11-19T07:29:08;2.50;;;2.30;;
6937;SDS011;40040;42.706;23.372;2023-11-19T07:31:36;3.17;;;2.87;;
6937;SDS011;40040;42.706;23.372;2023-11-19T07:34:03;4.23;;;3.23;;
6937;SDS011;40040;42.706;23.372;2023-11-19T07:36:31;3.10;;;2.40;;
6937;SDS011;40040;42.706;23.372;2023-11-19T07:38:58;2.93;;;2.73;;
6937;SDS011;40040;42.706;23.372;2023-11-19T07:41:25;3.13;;;2.83;;
6937;SDS011;40040;42.706;23.372;2023-11-19T07:43:52;2.80;;;2.60;;
6937;SDS011;40040;42.706;23.372;2023-11-19T07:46:19;2.90;;;2.70;;
6937;SDS011;40040;42.706;23.372;2023-11-19T07:48:46;3.97;;;3.40;;
6937;SDS011;40040;42.706;23.372;2023-11-19T07:51:14;2.70;;;2.50;;
6937;SDS011;40040;42.706;23.372;2023-11-19T07:53:42;3.57;;;3.20;;
6937;SDS011;40040;42.706;23.372;2023-11-19T07:56:09;3.57;;;3.13;;
6937;SDS011;40040;42.706;23.372;2023-11-19T07:58:37;2.67;;;2.47;;
6937;SDS011;40040;42.706;23.372;2023-11-19T08:01:04;4.07;;;3.30;;
6937;SDS011;40040;42.706;23.372;2023-11-19T08:03:31;4.67;;;2.97;;
6937;SDS011;40040;42.706;23.372;2023-11-19T08:05:59;3.23;;;2.93;;
6937;SDS011;40040;42.706;23.372;2023-11-19T08:08:26;3.10;;;2.90;;
6937;SDS011;40040;42.706;23.372;2023-11-19T08:10:56;3.83;;;3.43;;
6937;SDS011;40040;42.706;23.372;2023-11-19T08:13:23;4.37;;;3.47;;
6937;SDS011;40040;42.706;23.372;2023-11-19T08:15:50;6.20;;;4.57;;
6937;SDS011;40040;42.706;23.372;2023-11-19T08:18:17;3.23;;;2.90;;
6937;SDS011;40040;42.706;23.372;2023-11-19T08:20:44;3.30;;;3.00;;
6937;SDS011;40040;42.706;23.372;2023-11-19T08:23:14;3.37;;;3.07;;
6937;SDS011;40040;42.706;23.372;2023-11-19T08:25:40;3.80;;;3.03;;
6937;SDS011;40040;42.706;23.372;2023-11-19T08:28:09;3.10;;;2.90;;
6937;SDS011;40040;42.706;23.372;2023-11-19T08:30:35;3.03;;;2.77;;
6937;SDS011;40040;42.706;23.372;2023-11-19T08:33:02;3.17;;;2.90;;
6937;SDS011;40040;42.706;23.372;2023-11-19T08:35:31;4.40;;;3.50;;
6937;SDS011;40040;42.706;23.372;2023-11-19T08:37:57;5.30;;;3.10;;
6937;SDS011;40040;42.706;23.372;2023-11-19T08:40:25;3.50;;;3.20;;
6937;SDS011;40040;42.706;23.372;2023-11-19T08:42:52;5.90;;;4.50;;
6937;SDS011;40040;42.706;23.372;2023-11-19T08:45:20;4.10;;;3.10;;
6937;SDS011;40040;42.706;23.372;2023-11-19T08:47:47;3.90;;;3.50;;
6937;SDS011;40040;42.706;23.372;2023-11-19T08:50:14;3.30;;;2.73;;
6937;SDS011;40040;42.706;23.372;2023-11-19T08:52:40;2.87;;;2.53;;
6937;SDS011;40040;42.706;23.372;2023-11-19T08:55:07;6.63;;;3.83;;
6937;SDS011;40040;42.706;23.372;2023-11-19T08:57:36;4.30;;;2.57;;
6937;SDS011;40040;42.706;23.372;2023-11-19T09:00:03;3.40;;;3.10;;
6937;SDS011;40040;42.706;23.372;2023-11-19T09:02:34;5.07;;;3.93;;
6937;SDS011;40040;42.706;23.372;2023-11-19T09:05:02;3.67;;;3.37;;
6937;SDS011;40040;42.706;23.372;2023-11-19T09:07:29;3.63;;;3.10;;
6937;SDS011;40040;42.706;23.372;2023-11-19T09:09:55;4.13;;;3.60;;
6937;SDS011;40040;42.706;23.372;2023-11-19T09:12:22;4.17;;;3.50;;
6937;SDS011;40040;42.706;23.372;2023-11-19T09:14:49;5.70;;;3.60;;
6937;SDS011;40040;42.706;23.372;2023-11-19T09:17:16;3.80;;;3.40;;
6937;SDS011;40040;42.706;23.372;2023-11-19T09:19:45;3.90;;;3.57;;
6937;SDS011;40040;42.706;23.372;2023-11-19T09:22:12;2.90;;;2.70;;
6937;SDS011;40040;42.706;23.372;2023-11-19T09:24:38;2.80;;;2.60;;
6937;SDS011;40040;42.706;23.372;2023-11-19T09:27:05;2.80;;;2.60;;
6937;SDS011;40040;42.706;23.372;2023-11-19T09:29:32;4.37;;;3.97;;
6937;SDS011;40040;42.706;23.372;2023-11-19T09:31:59;3.60;;;3.10;;
6937;SDS011;40040;42.706;23.372;2023-11-19T09:34:26;4.73;;;3.33;;
6937;SDS011;40040;42.706;23.372;2023-11-19T09:36:55;3.97;;;3.60;;
6937;SDS011;40040;42.706;23.372;2023-11-19T09:39:22;3.97;;;3.40;;
6937;SDS011;40040;42.706;23.372;2023-11-19T09:41:51;4.10;;;3.63;;
6937;SDS011;40040;42.706;23.372;2023-11-19T09:44:17;3.50;;;3.20;;
6937;SDS011;40040;42.706;23.372;2023-11-19T09:46:45;2.90;;;2.70;;
6937;SDS011;40040;42.706;23.372;2023-11-19T09:49:14;2.70;;;2.50;;
6937;SDS011;40040;42.706;23.372;2023-11-19T09:51:44;3.23;;;3.00;;
6937;SDS011;40040;42.706;23.372;2023-11-19T09:54:12;3.43;;;3.13;;
6937;SDS011;40040;42.706;23.372;2023-11-19T09:56:39;14.73;;;8.33;;
6937;SDS011;40040;42.706;23.372;2023-11-19T09:59:07;5.57;;;4.43;;
6937;SDS011;40040;42.706;23.372;2023-11-19T10:01:35;4.33;;;3.10;;
6937;SDS011;40040;42.706;23.372;2023-11-19T10:04:03;5.13;;;3.57;;
6937;SDS011;40040;42.706;23.372;2023-11-19T10:06:30;4.03;;;2.97;;
6937;SDS011;40040;42.706;23.372;2023-11-19T10:08:57;3.07;;;2.80;;
6937;SDS011;40040;42.706;23.372;2023-11-19T10:11:26;3.40;;;3.10;;
6937;SDS011;40040;42.706;23.372;2023-11-19T10:13:53;5.37;;;3.90;;
6937;SDS011;40040;42.706;23.372;2023-11-19T10:16:20;6.13;;;3.63;;
6937;SDS011;40040;42.706;23.372;2023-11-19T10:18:49;2.97;;;2.67;;
6937;SDS011;40040;42.706;23.372;2023-11-19T10:21:17;3.97;;;3.57;;
6937;SDS011;40040;42.706;23.372;2023-11-19T10:23:47;3.73;;;3.43;;
6937;SDS011;40040;42.706;23.372;2023-11-19T10:26:16;3.97;;;3.23;;
6937;SDS011;40040;42.706;23.372;2023-11-19T10:28:45;3.03;;;2.60;;
6937;SDS011;40040;42.706;23.372;2023-11-19T10:31:12;2.90;;;2.60;;
6937;SDS011;40040;42.706;23.372;2023-11-19T10:33:39;3.83;;;3.20;;
6937;SDS011;40040;42.706;23.372;2023-11-19T10:36:07;8.17;;;4.00;;
6937;SDS011;40040;42.706;23.372;2023-11-19T10:38:34;2.33;;;2.20;;
6937;SDS011;40040;42.706;23.372;2023-11-19T10:41:01;4.53;;;3.77;;
6937;SDS011;40040;42.706;23.372;2023-11-19T10:43:29;6.43;;;3.57;;
6937;SDS011;40040;42.706;23.372;2023-11-19T10:46:08;2.40;;;2.20;;
6937;SDS011;40040;42.706;23.372;2023-11-19T10:48:36;3.17;;;2.80;;
6937;SDS011;40040;42.706;23.372;2023-11-19T10:51:04;2.60;;;2.50;;
6937;SDS011;40040;42.706;23.372;2023-11-19T10:53:33;3.23;;;2.97;;
6937;SDS011;40040;42.706;23.372;2023-11-19T10:56:02;2.73;;;2.53;;
6937;SDS011;40040;42.706;23.372;2023-11-19T10:58:34;3.10;;;2.87;;
6937;SDS011;40040;42.706;23.372;2023-11-19T11:01:06;2.80;;;2.60;;
6937;SDS011;40040;42.706;23.372;2023-11-19T11:03:38;2.63;;;2.43;;
6937;SDS011;40040;42.706;23.372;2023-11-19T11:06:06;3.83;;;3.17;;
6937;SDS011;40040;42.706;23.372;2023-11-19T11:08:34;2.90;;;2.70;;
6937;SDS011;40040;42.706;23.372;2023-11-19T11:11:03;3.83;;;2.83;;
6937;SDS011;40040;42.706;23.372;2023-11-19T11:13:31;2.70;;;2.50;;
6937;SDS011;40040;42.706;23.372;2023-11-19T11:15:59;3.00;;;2.70;;
6937;SDS011;40040;42.706;23.372;2023-11-19T11:18:28;2.83;;;2.60;;
6937;SDS011;40040;42.706;23.372;2023-11-19T11:20:55;4.37;;;2.90;;
6937;SDS011;40040;42.706;23.372;2023-11-19T11:23:36;3.20;;;2.90;;
6937;SDS011;40040;42.706;23.372;2023-11-19T11:26:24;2.70;;;2.50;;
6937;SDS011;40040;42.706;23.372;2023-11-19T11:29:02;2.93;;;2.60;;
6937;SDS011;40040;42.706;23.372;2023-11-19T11:31:36;3.90;;;3.17;;
6937;SDS011;40040;42.706;23.372;2023-11-19T11:34:23;8.33;;;4.77;;
6937;SDS011;40040;42.706;23.372;2023-11-19T11:37:15;3.37;;;3.00;;
6937;SDS011;40040;42.706;23.372;2023-11-19T11:39:45;3.83;;;3.10;;
6937;SDS011;40040;42.706;23.372;2023-11-19T11:45:02;3.33;;;2.80;;
6937;SDS011;40040;42.706;23.372;2023-11-19T11:50:48;2.73;;;2.53;;
6937;SDS011;40040;42.706;23.372;2023-11-19T11:53:21;2.10;;;2.00;;
6937;SDS011;40040;42.706;23.372;2023-11-19T11:55:53;2.70;;;2.50;;
6937;SDS011;40040;42.706;23.372;2023-11-19T11:58:21;2.97;;;2.77;;
6937;SDS011;40040;42.706;23.372;2023-11-19T12:00:52;4.40;;;2.63;;
6937;SDS011;40040;42.706;23.372;2023-11-19T12:03:20;2.47;;;2.37;;
6937;SDS011;40040;42.706;23.372;2023-11-19T12:05:49;2.43;;;2.13;;
6937;SDS011;40040;42.706;23.372;2023-11-19T12:08:18;2.72;;;2.45;;
6937;SDS011;40040;42.706;23.372;2023-11-19T12:10:47;2.97;;;2.70;;
6937;SDS011;40040;42.706;23.372;2023-11-19T12:13:15;2.85;;;2.65;;
6937;SDS011;40040;42.706;23.372;2023-11-19T12:18:36;3.45;;;3.15;;
6937;SDS011;40040;42.706;23.372;2023-11-19T12:21:06;2.25;;;2.10;;
6937;SDS011;40040;42.706;23.372;2023-11-19T12:23:35;2.88;;;2.78;;
6937;SDS011;40040;42.706;23.372;2023-11-19T12:26:21;2.60;;;2.50;;
6937;SDS011;40040;42.706;23.372;2023-11-19T12:28:57;3.65;;;3.00;;
6937;SDS011;40040;42.706;23.372;2023-11-19T12:31:25;4.78;;;3.13;;
6937;SDS011;40040;42.706;23.372;2023-11-19T12:33:52;2.20;;;2.10;;
6937;SDS011;40040;42.706;23.372;2023-11-19T12:36:21;2.67;;;2.50;;
6937;SDS011;40040;42.706;23.372;2023-11-19T12:38:48;2.80;;;2.60;;
6937;SDS011;40040;42.706;23.372;2023-11-19T12:41:16;2.42;;;2.33;;
6937;SDS011;40040;42.706;23.372;2023-11-19T12:43:45;3.28;;;3.05;;
6937;SDS011;40040;42.706;23.372;2023-11-19T12:46:18;3.00;;;2.80;;
6937;SDS011;40040;42.706;23.372;2023-11-19T12:48:46;3.00;;;2.80;;
6937;SDS011;40040;42.706;23.372;2023-11-19T12:51:13;2.70;;;2.55;;
6937;SDS011;40040;42.706;23.372;2023-11-19T12:53:50;2.78;;;2.60;;
6937;SDS011;40040;42.706;23.372;2023-11-19T12:56:19;3.65;;;3.30;;
6937;SDS011;40040;42.706;23.372;2023-11-19T12:58:46;3.88;;;3.47;;
6937;SDS011;40040;42.706;23.372;2023-11-19T13:01:15;3.90;;;3.60;;
6937;SDS011;40040;42.706;23.372;2023-11-19T13:03:43;5.43;;;3.53;;
6937;SDS011;40040;42.706;23.372;2023-11-19T13:06:11;7.82;;;4.22;;
6937;SDS011;40040;42.706;23.372;2023-11-19T13:08:40;6.80;;;4.82;;
6937;SDS011;40040;42.706;23.372;2023-11-19T13:11:10;3.97;;;3.50;;
6937;SDS011;40040;42.706;23.372;2023-11-19T13:13:56;3.00;;;2.70;;
6937;SDS011;40040;42.706;23.372;2023-11-19T13:16:24;4.00;;;3.40;;
6937;SDS011;40040;42.706;23.372;2023-11-19T13:18:51;4.82;;;3.58;;
6937;SDS011;40040;42.706;23.372;2023-11-19T13:21:18;4.27;;;3.83;;
6937;SDS011;40040;42.706;23.372;2023-11-19T13:23:45;12.77;;;6.03;;
6937;SDS011;40040;42.706;23.372;2023-11-19T13:26:13;13.77;;;6.97;;
6937;SDS011;40040;42.706;23.372;2023-11-19T13:28:40;4.10;;;3.70;;
6937;SDS011;40040;42.706;23.372;2023-11-19T13:31:07;3.87;;;3.57;;
6937;SDS011;40040;42.706;23.372;2023-11-19T13:33:35;3.87;;;3.30;;
6937;SDS011;40040;42.706;23.372;2023-11-19T13:36:02;3.27;;;2.97;;
6937;SDS011;40040;42.706;23.372;2023-11-19T13:38:31;5.17;;;3.73;;
6937;SDS011;40040;42.706;23.372;2023-11-19T13:40:58;4.37;;;3.60;;
6937;SDS011;40040;42.706;23.372;2023-11-19T13:43:27;5.53;;;4.10;;
6937;SDS011;40040;42.706;23.372;2023-11-19T13:45:54;4.90;;;3.67;;
6937;SDS011;40040;42.706;23.372;2023-11-19T13:48:21;4.50;;;3.77;;
6937;SDS011;40040;42.706;23.372;2023-11-19T13:50:48;4.10;;;3.40;;
6937;SDS011;40040;42.706;23.372;2023-11-19T13:53:15;4.40;;;3.23;;
6937;SDS011;40040;42.706;23.372;2023-11-19T13:55:42;4.07;;;3.67;;
6937;SDS011;40040;42.706;23.372;2023-11-19T13:58:09;6.87;;;4.67;;
6937;SDS011;40040;42.706;23.372;2023-11-19T14:00:37;6.97;;;5.00;;
6937;SDS011;40040;42.706;23.372;2023-11-19T14:03:04;5.37;;;4.13;;
6937;SDS011;40040;42.706;23.372;2023-11-19T14:05:31;4.00;;;3.60;;
6937;SDS011;40040;42.706;23.372;2023-11-19T14:07:58;4.47;;;3.40;;
6937;SDS011;40040;42.706;23.372;2023-11-19T14:10:26;3.10;;;2.80;;
6937;SDS011;40040;42.706;23.372;2023-11-19T14:12:53;5.00;;;3.60;;
6937;SDS011;40040;42.706;23.372;2023-11-19T14:15:20;3.63;;;3.33;;
6937;SDS011;40040;42.706;23.372;2023-11-19T14:17:49;4.57;;;3.50;;
6937;SDS011;40040;42.706;23.372;2023-11-19T14:20:15;4.73;;;3.97;;
6937;SDS011;40040;42.706;23.372;2023-11-19T14:22:43;7.73;;;4.23;;
6937;SDS011;40040;42.706;23.372;2023-11-19T14:25:11;5.77;;;4.27;;
6937;SDS011;40040;42.706;23.372;2023-11-19T14:27:38;9.60;;;6.17;;
6937;SDS011;40040;42.706;23.372;2023-11-19T14:30:07;6.53;;;4.70;;
6937;SDS011;40040;42.706;23.372;2023-11-19T14:32:36;5.43;;;4.43;;
6937;SDS011;40040;42.706;23.372;2023-11-19T14:35:05;5.17;;;4.20;;
6937;SDS011;40040;42.706;23.372;2023-11-19T14:37:33;7.83;;;4.53;;
6937;SDS011;40040;42.706;23.372;2023-11-19T14:40:00;4.30;;;3.90;;
6937;SDS011;40040;42.706;23.372;2023-11-19T14:42:29;4.53;;;4.00;;
6937;SDS011;40040;42.706;23.372;2023-11-19T14:44:56;3.80;;;3.37;;
6937;SDS011;40040;42.706;23.372;2023-11-19T14:47:22;9.37;;;3.97;;
6937;SDS011;40040;42.706;23.372;2023-11-19T14:49:49;4.80;;;4.00;;
6937;SDS011;40040;42.706;23.372;2023-11-19T14:52:18;4.53;;;3.73;;
6937;SDS011;40040;42.706;23.372;2023-11-19T14:54:44;5.47;;;4.30;;
6937;SDS011;40040;42.706;23.372;2023-11-19T14:57:11;6.28;;;4.88;;
6937;SDS011;40040;42.706;23.372;2023-11-19T14:59:38;5.73;;;4.23;;
6937;SDS011;40040;42.706;23.372;2023-11-19T15:02:05;6.07;;;4.80;;